sensor_id;sensor_type;location;lat;lon;timestamp;P1;durP1;ratioP1;P2;durP2;ratioP2
74963;SDS011;63521;51.900;4.748;2023-05-13T00:02:15;3.60;;;2.97;;
74963;SDS011;63521;51.900;4.748;2023-05-13T00:04:40;3.47;;;2.97;;
74963;SDS011;63521;51.900;4.748;2023-05-13T00:07:06;4.32;;;3.25;;
74963;SDS011;63521;51.900;4.748;2023-05-13T00:09:31;5.53;;;3.60;;
74963;SDS011;63521;51.900;4.748;2023-05-13T00:11:56;4.78;;;3.35;;
74963;SDS011;63521;51.900;4.748;2023-05-13T00:14:22;4.47;;;3.25;;
74963;SDS011;63521;51.900;4.748;2023-05-13T00:16:47;5.50;;;3.60;;
74963;SDS011;63521;51.900;4.748;2023-05-13T00:19:13;4.35;;;3.10;;
74963;SDS011;63521;51.900;4.748;2023-05-13T00:21:39;4.90;;;3.00;;
74963;SDS011;63521;51.900;4.748;2023-05-13T00:24:05;4.50;;;3.20;;
74963;SDS011;63521;51.900;4.748;2023-05-13T00:26:30;3.95;;;3.03;;
74963;SDS011;63521;51.900;4.748;2023-05-13T00:28:56;4.85;;;3.20;;
74963;SDS011;63521;51.900;4.748;2023-05-13T00:31:21;4.95;;;3.38;;
74963;SDS011;63521;51.900;4.748;2023-05-13T00:33:47;4.28;;;3.40;;
74963;SDS011;63521;51.900;4.748;2023-05-13T00:36:12;3.78;;;3.08;;
74963;SDS011;63521;51.900;4.748;2023-05-13T00:38:38;3.95;;;2.95;;
74963;SDS011;63521;51.900;4.748;2023-05-13T00:41:03;4.47;;;3.47;;
74963;SDS011;63521;51.900;4.748;2023-05-13T00:43:29;4.90;;;3.22;;
74963;SDS011;63521;51.900;4.748;2023-05-13T00:45:55;4.47;;;3.40;;
74963;SDS011;63521;51.900;4.748;2023-05-13T00:48:21;3.70;;;3.20;;
74963;SDS011;63521;51.900;4.748;2023-05-13T00:50:47;4.20;;;3.05;;
74963;SDS011;63521;51.900;4.748;2023-05-13T00:53:13;4.13;;;2.95;;
74963;SDS011;63521;51.900;4.748;2023-05-13T00:55:41;3.58;;;2.72;;
74963;SDS011;63521;51.900;4.748;2023-05-13T00:58:07;4.57;;;3.30;;
74963;SDS011;63521;51.900;4.748;2023-05-13T01:00:32;3.63;;;2.80;;
74963;SDS011;63521;51.900;4.748;2023-05-13T01:03:14;4.53;;;2.80;;
74963;SDS011;63521;51.900;4.748;2023-05-13T01:05:49;3.92;;;3.10;;
74963;SDS011;63521;51.900;4.748;2023-05-13T01:08:23;4.25;;;3.30;;
74963;SDS011;63521;51.900;4.748;2023-05-13T01:13:48;3.83;;;3.10;;
74963;SDS011;63521;51.900;4.748;2023-05-13T01:22:00;3.58;;;3.15;;
74963;SDS011;63521;51.900;4.748;2023-05-13T01:24:26;3.97;;;2.95;;
74963;SDS011;63521;51.900;4.748;2023-05-13T01:26:51;4.95;;;3.22;;
74963;SDS011;63521;51.900;4.748;2023-05-13T01:29:17;3.42;;;2.97;;
74963;SDS011;63521;51.900;4.748;2023-05-13T01:31:43;4.70;;;3.10;;
74963;SDS011;63521;51.900;4.748;2023-05-13T01:34:10;4.47;;;2.97;;
74963;SDS011;63521;51.900;4.748;2023-05-13T01:36:37;3.47;;;2.67;;
74963;SDS011;63521;51.900;4.748;2023-05-13T01:39:02;4.30;;;2.70;;
74963;SDS011;63521;51.900;4.748;2023-05-13T01:41:28;4.22;;;3.03;;
74963;SDS011;63521;51.900;4.748;2023-05-13T01:43:54;4.07;;;2.80;;
74963;SDS011;63521;51.900;4.748;2023-05-13T01:46:19;3.72;;;2.90;;
74963;SDS011;63521;51.900;4.748;2023-05-13T01:48:44;3.72;;;3.15;;
74963;SDS011;63521;51.900;4.748;2023-05-13T01:51:10;4.30;;;2.95;;
74963;SDS011;63521;51.900;4.748;2023-05-13T01:53:35;3.80;;;2.72;;
74963;SDS011;63521;51.900;4.748;2023-05-13T01:56:01;3.88;;;3.33;;
74963;SDS011;63521;51.900;4.748;2023-05-13T01:58:26;3.90;;;2.92;;
74963;SDS011;63521;51.900;4.748;2023-05-13T02:00:51;4.10;;;3.13;;
74963;SDS011;63521;51.900;4.748;2023-05-13T02:03:17;4.15;;;3.08;;
74963;SDS011;63521;51.900;4.748;2023-05-13T02:05:42;3.65;;;2.90;;
74963;SDS011;63521;51.900;4.748;2023-05-13T02:08:08;3.92;;;2.97;;
74963;SDS011;63521;51.900;4.748;2023-05-13T02:10:34;3.67;;;2.90;;
74963;SDS011;63521;51.900;4.748;2023-05-13T02:12:59;5.03;;;3.05;;
74963;SDS011;63521;51.900;4.748;2023-05-13T02:15:25;4.20;;;2.90;;
74963;SDS011;63521;51.900;4.748;2023-05-13T02:17:50;3.75;;;2.90;;
74963;SDS011;63521;51.900;4.748;2023-05-13T02:20:15;3.88;;;2.92;;
74963;SDS011;63521;51.900;4.748;2023-05-13T02:22:41;4.10;;;2.95;;
74963;SDS011;63521;51.900;4.748;2023-05-13T02:25:06;5.25;;;2.60;;
74963;SDS011;63521;51.900;4.748;2023-05-13T02:27:32;3.50;;;2.90;;
74963;SDS011;63521;51.900;4.748;2023-05-13T02:29:57;4.10;;;3.03;;
74963;SDS011;63521;51.900;4.748;2023-05-13T02:32:23;3.80;;;2.72;;
74963;SDS011;63521;51.900;4.748;2023-05-13T02:34:48;3.50;;;2.80;;
74963;SDS011;63521;51.900;4.748;2023-05-13T02:37:14;3.65;;;2.97;;
74963;SDS011;63521;51.900;4.748;2023-05-13T02:39:39;3.63;;;2.95;;
74963;SDS011;63521;51.900;4.748;2023-05-13T02:42:05;3.85;;;2.92;;
74963;SDS011;63521;51.900;4.748;2023-05-13T02:44:32;3.83;;;2.92;;
74963;SDS011;63521;51.900;4.748;2023-05-13T02:46:57;4.05;;;2.70;;
74963;SDS011;63521;51.900;4.748;2023-05-13T02:49:22;4.55;;;3.30;;
74963;SDS011;63521;51.900;4.748;2023-05-13T02:51:48;3.90;;;2.83;;
74963;SDS011;63521;51.900;4.748;2023-05-13T02:54:13;4.03;;;3.20;;
74963;SDS011;63521;51.900;4.748;2023-05-13T02:56:39;4.25;;;3.30;;
74963;SDS011;63521;51.900;4.748;2023-05-13T02:59:04;4.15;;;3.20;;
74963;SDS011;63521;51.900;4.748;2023-05-13T03:01:30;3.80;;;2.85;;
74963;SDS011;63521;51.900;4.748;2023-05-13T03:03:55;3.83;;;2.78;;
74963;SDS011;63521;51.900;4.748;2023-05-13T03:06:40;3.30;;;2.58;;
74963;SDS011;63521;51.900;4.748;2023-05-13T03:09:26;3.70;;;2.72;;
74963;SDS011;63521;51.900;4.748;2023-05-13T03:12:11;3.90;;;2.95;;
74963;SDS011;63521;51.900;4.748;2023-05-13T03:14:56;3.30;;;2.70;;
74963;SDS011;63521;51.900;4.748;2023-05-13T03:17:42;3.65;;;2.95;;
74963;SDS011;63521;51.900;4.748;2023-05-13T03:20:08;3.65;;;2.90;;
74963;SDS011;63521;51.900;4.748;2023-05-13T03:22:35;4.40;;;3.13;;
74963;SDS011;63521;51.900;4.748;2023-05-13T03:25:02;3.63;;;3.03;;
74963;SDS011;63521;51.900;4.748;2023-05-13T03:27:29;3.30;;;3.00;;
74963;SDS011;63521;51.900;4.748;2023-05-13T03:29:54;4.18;;;3.05;;
74963;SDS011;63521;51.900;4.748;2023-05-13T03:32:20;4.63;;;3.40;;
74963;SDS011;63521;51.900;4.748;2023-05-13T03:34:46;4.03;;;3.13;;
74963;SDS011;63521;51.900;4.748;2023-05-13T03:37:12;3.95;;;2.90;;
74963;SDS011;63521;51.900;4.748;2023-05-13T03:39:37;4.60;;;3.05;;
74963;SDS011;63521;51.900;4.748;2023-05-13T03:42:03;3.50;;;2.75;;
74963;SDS011;63521;51.900;4.748;2023-05-13T03:44:28;3.67;;;2.78;;
74963;SDS011;63521;51.900;4.748;2023-05-13T03:46:53;4.45;;;2.92;;
74963;SDS011;63521;51.900;4.748;2023-05-13T03:49:19;4.07;;;2.90;;
74963;SDS011;63521;51.900;4.748;2023-05-13T03:51:44;4.55;;;3.05;;
74963;SDS011;63521;51.900;4.748;2023-05-13T03:54:10;4.20;;;3.10;;
74963;SDS011;63521;51.900;4.748;2023-05-13T03:56:35;4.95;;;2.97;;
74963;SDS011;63521;51.900;4.748;2023-05-13T03:59:00;4.07;;;2.90;;
74963;SDS011;63521;51.900;4.748;2023-05-13T04:01:26;3.28;;;2.80;;
74963;SDS011;63521;51.900;4.748;2023-05-13T04:03:51;4.35;;;3.20;;
74963;SDS011;63521;51.900;4.748;2023-05-13T04:06:17;5.10;;;3.20;;
74963;SDS011;63521;51.900;4.748;2023-05-13T04:08:42;4.55;;;3.28;;
74963;SDS011;63521;51.900;4.748;2023-05-13T04:11:08;4.40;;;2.83;;
74963;SDS011;63521;51.900;4.748;2023-05-13T04:13:34;4.25;;;3.05;;
74963;SDS011;63521;51.900;4.748;2023-05-13T04:16:00;4.35;;;2.88;;
74963;SDS011;63521;51.900;4.748;2023-05-13T04:18:25;4.15;;;3.00;;
74963;SDS011;63521;51.900;4.748;2023-05-13T04:20:50;3.60;;;2.75;;
74963;SDS011;63521;51.900;4.748;2023-05-13T04:23:17;3.53;;;2.70;;
74963;SDS011;63521;51.900;4.748;2023-05-13T04:25:42;4.18;;;2.95;;
74963;SDS011;63521;51.900;4.748;2023-05-13T04:28:07;4.38;;;3.38;;
74963;SDS011;63521;51.900;4.748;2023-05-13T04:30:33;4.47;;;3.22;;
74963;SDS011;63521;51.900;4.748;2023-05-13T04:33:00;4.55;;;3.30;;
74963;SDS011;63521;51.900;4.748;2023-05-13T04:35:25;4.10;;;2.85;;
74963;SDS011;63521;51.900;4.748;2023-05-13T04:37:51;3.70;;;2.75;;
74963;SDS011;63521;51.900;4.748;2023-05-13T04:40:16;3.67;;;3.08;;
74963;SDS011;63521;51.900;4.748;2023-05-13T04:42:41;3.63;;;2.70;;
74963;SDS011;63521;51.900;4.748;2023-05-13T04:45:07;4.20;;;3.10;;
74963;SDS011;63521;51.900;4.748;2023-05-13T04:47:33;3.78;;;2.95;;
74963;SDS011;63521;51.900;4.748;2023-05-13T04:49:59;4.65;;;3.30;;
74963;SDS011;63521;51.900;4.748;2023-05-13T04:52:25;4.00;;;3.00;;
74963;SDS011;63521;51.900;4.748;2023-05-13T04:54:51;4.75;;;3.35;;
74963;SDS011;63521;51.900;4.748;2023-05-13T04:57:16;5.10;;;3.50;;
74963;SDS011;63521;51.900;4.748;2023-05-13T04:59:41;6.63;;;3.25;;
74963;SDS011;63521;51.900;4.748;2023-05-13T05:02:07;3.80;;;3.10;;
74963;SDS011;63521;51.900;4.748;2023-05-13T05:04:32;5.80;;;3.53;;
74963;SDS011;63521;51.900;4.748;2023-05-13T05:06:57;4.07;;;2.85;;
74963;SDS011;63521;51.900;4.748;2023-05-13T05:09:23;3.92;;;3.05;;
74963;SDS011;63521;51.900;4.748;2023-05-13T05:11:48;4.85;;;3.55;;
74963;SDS011;63521;51.900;4.748;2023-05-13T05:14:14;3.83;;;3.33;;
74963;SDS011;63521;51.900;4.748;2023-05-13T05:16:40;4.85;;;3.50;;
74963;SDS011;63521;51.900;4.748;2023-05-13T05:19:06;4.72;;;3.28;;
74963;SDS011;63521;51.900;4.748;2023-05-13T05:21:31;4.50;;;3.08;;
74963;SDS011;63521;51.900;4.748;2023-05-13T05:23:56;4.05;;;3.15;;
74963;SDS011;63521;51.900;4.748;2023-05-13T05:26:23;4.43;;;3.25;;
74963;SDS011;63521;51.900;4.748;2023-05-13T05:28:49;6.55;;;3.40;;
74963;SDS011;63521;51.900;4.748;2023-05-13T05:31:15;5.47;;;3.42;;
74963;SDS011;63521;51.900;4.748;2023-05-13T05:33:40;4.72;;;3.60;;
74963;SDS011;63521;51.900;4.748;2023-05-13T05:36:06;5.22;;;3.92;;
74963;SDS011;63521;51.900;4.748;2023-05-13T05:38:32;5.38;;;3.70;;
74963;SDS011;63521;51.900;4.748;2023-05-13T05:40:57;4.63;;;3.58;;
74963;SDS011;63521;51.900;4.748;2023-05-13T05:43:22;5.30;;;3.50;;
74963;SDS011;63521;51.900;4.748;2023-05-13T05:45:48;4.25;;;3.13;;
74963;SDS011;63521;51.900;4.748;2023-05-13T05:48:13;4.97;;;3.47;;
74963;SDS011;63521;51.900;4.748;2023-05-13T05:50:39;5.93;;;3.47;;
74963;SDS011;63521;51.900;4.748;2023-05-13T05:53:05;4.90;;;3.25;;
74963;SDS011;63521;51.900;4.748;2023-05-13T05:55:31;4.78;;;3.17;;
74963;SDS011;63521;51.900;4.748;2023-05-13T05:57:56;5.20;;;3.35;;
74963;SDS011;63521;51.900;4.748;2023-05-13T06:00:23;4.53;;;3.17;;
74963;SDS011;63521;51.900;4.748;2023-05-13T06:02:48;5.25;;;3.33;;
74963;SDS011;63521;51.900;4.748;2023-05-13T06:05:14;4.22;;;3.28;;
74963;SDS011;63521;51.900;4.748;2023-05-13T06:07:39;5.38;;;3.95;;
74963;SDS011;63521;51.900;4.748;2023-05-13T06:10:05;4.38;;;3.47;;
74963;SDS011;63521;51.900;4.748;2023-05-13T06:12:31;6.40;;;3.97;;
74963;SDS011;63521;51.900;4.748;2023-05-13T06:14:57;5.50;;;3.60;;
74963;SDS011;63521;51.900;4.748;2023-05-13T06:17:22;4.50;;;2.90;;
74963;SDS011;63521;51.900;4.748;2023-05-13T06:19:47;6.53;;;3.90;;
74963;SDS011;63521;51.900;4.748;2023-05-13T06:22:13;5.50;;;3.88;;
74963;SDS011;63521;51.900;4.748;2023-05-13T06:24:39;6.40;;;3.45;;
74963;SDS011;63521;51.900;4.748;2023-05-13T06:27:06;5.93;;;3.40;;
74963;SDS011;63521;51.900;4.748;2023-05-13T06:29:32;6.03;;;3.88;;
74963;SDS011;63521;51.900;4.748;2023-05-13T06:31:57;4.35;;;3.63;;
74963;SDS011;63521;51.900;4.748;2023-05-13T06:34:22;4.88;;;3.53;;
74963;SDS011;63521;51.900;4.748;2023-05-13T06:36:48;6.15;;;3.70;;
74963;SDS011;63521;51.900;4.748;2023-05-13T06:39:13;3.45;;;3.15;;
74963;SDS011;63521;51.900;4.748;2023-05-13T06:41:39;4.57;;;3.40;;
74963;SDS011;63521;51.900;4.748;2023-05-13T06:44:05;4.93;;;3.20;;
74963;SDS011;63521;51.900;4.748;2023-05-13T06:46:31;4.05;;;3.25;;
74963;SDS011;63521;51.900;4.748;2023-05-13T06:48:57;4.18;;;3.47;;
74963;SDS011;63521;51.900;4.748;2023-05-13T06:51:23;4.28;;;3.15;;
74963;SDS011;63521;51.900;4.748;2023-05-13T06:53:50;5.65;;;3.60;;
74963;SDS011;63521;51.900;4.748;2023-05-13T06:56:15;4.32;;;3.05;;
74963;SDS011;63521;51.900;4.748;2023-05-13T06:58:41;6.03;;;3.60;;
74963;SDS011;63521;51.900;4.748;2023-05-13T07:01:06;4.80;;;4.00;;
74963;SDS011;63521;51.900;4.748;2023-05-13T07:03:31;4.38;;;3.45;;
74963;SDS011;63521;51.900;4.748;2023-05-13T07:05:57;4.07;;;3.13;;
74963;SDS011;63521;51.900;4.748;2023-05-13T07:08:22;4.20;;;3.00;;
74963;SDS011;63521;51.900;4.748;2023-05-13T07:10:48;5.53;;;3.70;;
74963;SDS011;63521;51.900;4.748;2023-05-13T07:13:13;3.90;;;3.20;;
74963;SDS011;63521;51.900;4.748;2023-05-13T07:15:39;4.85;;;3.47;;
74963;SDS011;63521;51.900;4.748;2023-05-13T07:18:05;4.28;;;3.45;;
74963;SDS011;63521;51.900;4.748;2023-05-13T07:20:30;4.25;;;3.35;;
74963;SDS011;63521;51.900;4.748;2023-05-13T07:22:55;5.30;;;3.40;;
74963;SDS011;63521;51.900;4.748;2023-05-13T07:25:21;4.03;;;3.42;;
74963;SDS011;63521;51.900;4.748;2023-05-13T07:27:46;5.05;;;3.80;;
74963;SDS011;63521;51.900;4.748;2023-05-13T07:30:12;3.60;;;3.10;;
74963;SDS011;63521;51.900;4.748;2023-05-13T07:32:38;3.88;;;3.47;;
74963;SDS011;63521;51.900;4.748;2023-05-13T07:35:03;5.30;;;3.35;;
74963;SDS011;63521;51.900;4.748;2023-05-13T07:37:29;4.43;;;3.45;;
74963;SDS011;63521;51.900;4.748;2023-05-13T07:39:54;5.53;;;3.50;;
74963;SDS011;63521;51.900;4.748;2023-05-13T07:42:20;5.28;;;3.33;;
74963;SDS011;63521;51.900;4.748;2023-05-13T07:44:45;3.95;;;3.22;;
74963;SDS011;63521;51.900;4.748;2023-05-13T07:47:11;3.22;;;2.92;;
74963;SDS011;63521;51.900;4.748;2023-05-13T07:49:36;3.90;;;3.00;;
74963;SDS011;63521;51.900;4.748;2023-05-13T07:52:02;3.80;;;3.40;;
74963;SDS011;63521;51.900;4.748;2023-05-13T07:54:28;3.88;;;3.13;;
74963;SDS011;63521;51.900;4.748;2023-05-13T07:56:53;4.15;;;3.30;;
74963;SDS011;63521;51.900;4.748;2023-05-13T07:59:19;4.65;;;3.45;;
74963;SDS011;63521;51.900;4.748;2023-05-13T08:01:44;3.67;;;3.10;;
74963;SDS011;63521;51.900;4.748;2023-05-13T08:04:12;4.00;;;3.42;;
74963;SDS011;63521;51.900;4.748;2023-05-13T08:06:38;3.58;;;2.80;;
74963;SDS011;63521;51.900;4.748;2023-05-13T08:09:03;5.55;;;3.45;;
74963;SDS011;63521;51.900;4.748;2023-05-13T08:11:29;4.47;;;3.85;;
74963;SDS011;63521;51.900;4.748;2023-05-13T08:13:54;5.00;;;3.70;;
74963;SDS011;63521;51.900;4.748;2023-05-13T08:16:20;3.97;;;3.15;;
74963;SDS011;63521;51.900;4.748;2023-05-13T08:18:45;4.60;;;3.30;;
74963;SDS011;63521;51.900;4.748;2023-05-13T08:21:10;4.35;;;3.30;;
74963;SDS011;63521;51.900;4.748;2023-05-13T08:23:36;4.78;;;3.33;;
74963;SDS011;63521;51.900;4.748;2023-05-13T08:26:03;4.88;;;3.47;;
74963;SDS011;63521;51.900;4.748;2023-05-13T08:28:28;4.78;;;3.42;;
74963;SDS011;63521;51.900;4.748;2023-05-13T08:30:54;3.65;;;3.35;;
74963;SDS011;63521;51.900;4.748;2023-05-13T08:33:26;3.65;;;3.35;;
74963;SDS011;63521;51.900;4.748;2023-05-13T08:35:54;4.18;;;3.53;;
74963;SDS011;63521;51.900;4.748;2023-05-13T08:38:20;4.40;;;3.20;;
74963;SDS011;63521;51.900;4.748;2023-05-13T08:40:46;3.28;;;2.97;;
74963;SDS011;63521;51.900;4.748;2023-05-13T08:43:11;4.05;;;3.38;;
74963;SDS011;63521;51.900;4.748;2023-05-13T08:45:39;3.63;;;3.28;;
74963;SDS011;63521;51.900;4.748;2023-05-13T08:48:05;3.88;;;3.47;;
74963;SDS011;63521;51.900;4.748;2023-05-13T08:50:30;5.68;;;3.33;;
74963;SDS011;63521;51.900;4.748;2023-05-13T08:52:56;3.20;;;2.90;;
74963;SDS011;63521;51.900;4.748;2023-05-13T08:55:23;3.65;;;3.33;;
74963;SDS011;63521;51.900;4.748;2023-05-13T08:57:49;3.35;;;2.80;;
74963;SDS011;63521;51.900;4.748;2023-05-13T09:00:15;3.25;;;2.95;;
74963;SDS011;63521;51.900;4.748;2023-05-13T09:02:41;3.55;;;3.10;;
74963;SDS011;63521;51.900;4.748;2023-05-13T09:05:07;3.97;;;3.55;;
74963;SDS011;63521;51.900;4.748;2023-05-13T09:07:34;3.67;;;3.35;;
74963;SDS011;63521;51.900;4.748;2023-05-13T09:10:00;3.25;;;2.95;;
74963;SDS011;63521;51.900;4.748;2023-05-13T09:12:45;3.60;;;3.00;;
74963;SDS011;63521;51.900;4.748;2023-05-13T09:15:13;3.50;;;3.20;;
74963;SDS011;63521;51.900;4.748;2023-05-13T09:17:42;3.47;;;2.83;;
74963;SDS011;63521;51.900;4.748;2023-05-13T09:20:10;3.60;;;3.30;;
74963;SDS011;63521;51.900;4.748;2023-05-13T09:22:49;3.65;;;3.03;;
74963;SDS011;63521;51.900;4.748;2023-05-13T09:25:25;3.95;;;3.33;;
74963;SDS011;63521;51.900;4.748;2023-05-13T09:27:52;3.20;;;2.90;;
74963;SDS011;63521;51.900;4.748;2023-05-13T09:30:19;3.40;;;3.10;;
74963;SDS011;63521;51.900;4.748;2023-05-13T09:32:45;3.72;;;3.08;;
74963;SDS011;63521;51.900;4.748;2023-05-13T09:38:10;4.75;;;3.20;;
74963;SDS011;63521;51.900;4.748;2023-05-13T09:43:25;7.35;;;5.93;;
74963;SDS011;63521;51.900;4.748;2023-05-13T09:46:02;13.98;;;6.10;;
74963;SDS011;63521;51.900;4.748;2023-05-13T09:48:29;14.45;;;5.13;;
74963;SDS011;63521;51.900;4.748;2023-05-13T09:50:57;6.43;;;4.13;;
74963;SDS011;63521;51.900;4.748;2023-05-13T09:53:23;6.07;;;3.83;;
74963;SDS011;63521;51.900;4.748;2023-05-13T09:55:50;8.82;;;4.50;;
74963;SDS011;63521;51.900;4.748;2023-05-13T09:58:17;7.28;;;3.80;;
74963;SDS011;63521;51.900;4.748;2023-05-13T10:00:44;5.60;;;4.10;;
74963;SDS011;63521;51.900;4.748;2023-05-13T10:03:10;5.95;;;3.83;;
74963;SDS011;63521;51.900;4.748;2023-05-13T10:05:35;4.20;;;3.80;;
74963;SDS011;63521;51.900;4.748;2023-05-13T10:08:02;4.22;;;3.80;;
74963;SDS011;63521;51.900;4.748;2023-05-13T10:10:29;5.15;;;4.10;;
74963;SDS011;63521;51.900;4.748;2023-05-13T10:13:07;6.35;;;3.85;;
74963;SDS011;63521;51.900;4.748;2023-05-13T10:15:35;4.10;;;3.70;;
74963;SDS011;63521;51.900;4.748;2023-05-13T10:18:00;3.90;;;3.60;;
74963;SDS011;63521;51.900;4.748;2023-05-13T10:20:26;4.90;;;4.35;;
74963;SDS011;63521;51.900;4.748;2023-05-13T10:22:51;4.53;;;3.67;;
74963;SDS011;63521;51.900;4.748;2023-05-13T10:25:17;7.50;;;4.00;;
74963;SDS011;63521;51.900;4.748;2023-05-13T10:27:42;4.45;;;3.53;;
74963;SDS011;63521;51.900;4.748;2023-05-13T10:30:08;7.50;;;3.67;;
74963;SDS011;63521;51.900;4.748;2023-05-13T10:32:35;5.78;;;3.55;;
74963;SDS011;63521;51.900;4.748;2023-05-13T10:35:12;4.63;;;3.80;;
74963;SDS011;63521;51.900;4.748;2023-05-13T10:46:54;5.65;;;3.70;;
74963;SDS011;63521;51.900;4.748;2023-05-13T10:49:49;6.40;;;3.97;;
74963;SDS011;63521;51.900;4.748;2023-05-13T10:52:16;3.65;;;3.35;;
74963;SDS011;63521;51.900;4.748;2023-05-13T10:54:41;7.82;;;4.03;;
74963;SDS011;63521;51.900;4.748;2023-05-13T10:57:07;3.90;;;3.50;;
74963;SDS011;63521;51.900;4.748;2023-05-13T11:05:47;4.22;;;3.58;;
74963;SDS011;63521;51.900;4.748;2023-05-13T11:08:41;4.18;;;3.78;;
74963;SDS011;63521;51.900;4.748;2023-05-13T11:13:49;4.50;;;3.88;;
74963;SDS011;63521;51.900;4.748;2023-05-13T11:16:19;4.20;;;3.80;;
74963;SDS011;63521;51.900;4.748;2023-05-13T11:18:45;5.50;;;4.25;;
74963;SDS011;63521;51.900;4.748;2023-05-13T11:21:10;6.40;;;3.85;;
74963;SDS011;63521;51.900;4.748;2023-05-13T11:23:49;5.90;;;4.13;;
74963;SDS011;63521;51.900;4.748;2023-05-13T11:26:18;5.72;;;4.18;;
74963;SDS011;63521;51.900;4.748;2023-05-13T11:28:51;4.32;;;3.92;;
74963;SDS011;63521;51.900;4.748;2023-05-13T11:31:17;5.38;;;3.95;;
74963;SDS011;63521;51.900;4.748;2023-05-13T11:36:31;7.57;;;4.80;;
74963;SDS011;63521;51.900;4.748;2023-05-13T11:39:31;7.28;;;6.28;;
74963;SDS011;63521;51.900;4.748;2023-05-13T11:44:18;6.38;;;4.22;;
74963;SDS011;63521;51.900;4.748;2023-05-13T11:46:49;6.28;;;4.65;;
74963;SDS011;63521;51.900;4.748;2023-05-13T11:49:37;6.78;;;4.78;;
74963;SDS011;63521;51.900;4.748;2023-05-13T11:54:41;5.60;;;3.67;;
74963;SDS011;63521;51.900;4.748;2023-05-13T11:57:19;5.63;;;4.43;;
74963;SDS011;63521;51.900;4.748;2023-05-13T12:00:22;4.30;;;3.80;;
74963;SDS011;63521;51.900;4.748;2023-05-13T12:07:56;4.53;;;4.10;;
74963;SDS011;63521;51.900;4.748;2023-05-13T12:11:01;5.35;;;4.25;;
74963;SDS011;63521;51.900;4.748;2023-05-13T12:13:27;4.25;;;3.80;;
74963;SDS011;63521;51.900;4.748;2023-05-13T12:15:52;6.60;;;4.10;;
74963;SDS011;63521;51.900;4.748;2023-05-13T12:18:18;5.72;;;3.90;;
74963;SDS011;63521;51.900;4.748;2023-05-13T12:20:44;6.68;;;4.10;;
74963;SDS011;63521;51.900;4.748;2023-05-13T12:23:10;4.80;;;3.78;;
74963;SDS011;63521;51.900;4.748;2023-05-13T12:28:22;4.50;;;4.03;;
74963;SDS011;63521;51.900;4.748;2023-05-13T12:33:25;4.70;;;4.00;;
74963;SDS011;63521;51.900;4.748;2023-05-13T12:38:58;4.82;;;4.25;;
74963;SDS011;63521;51.900;4.748;2023-05-13T12:41:30;5.78;;;3.90;;
74963;SDS011;63521;51.900;4.748;2023-05-13T12:44:09;4.50;;;4.03;;
74963;SDS011;63521;51.900;4.748;2023-05-13T12:46:37;4.28;;;3.83;;
74963;SDS011;63521;51.900;4.748;2023-05-13T12:49:04;4.35;;;3.95;;
74963;SDS011;63521;51.900;4.748;2023-05-13T12:51:30;6.35;;;4.32;;
74963;SDS011;63521;51.900;4.748;2023-05-13T12:54:00;4.40;;;4.00;;
74963;SDS011;63521;51.900;4.748;2023-05-13T12:56:26;5.03;;;3.85;;
74963;SDS011;63521;51.900;4.748;2023-05-13T12:58:52;9.68;;;4.38;;
74963;SDS011;63521;51.900;4.748;2023-05-13T13:01:21;4.43;;;4.03;;
74963;SDS011;63521;51.900;4.748;2023-05-13T13:03:49;4.22;;;3.78;;
74963;SDS011;63521;51.900;4.748;2023-05-13T13:06:19;5.00;;;3.78;;
74963;SDS011;63521;51.900;4.748;2023-05-13T13:08:45;4.22;;;3.83;;
74963;SDS011;63521;51.900;4.748;2023-05-13T13:11:10;4.10;;;3.60;;
74963;SDS011;63521;51.900;4.748;2023-05-13T13:13:45;4.68;;;3.88;;
74963;SDS011;63521;51.900;4.748;2023-05-13T13:16:11;4.25;;;3.85;;
74963;SDS011;63521;51.900;4.748;2023-05-13T13:18:37;5.80;;;3.85;;
74963;SDS011;63521;51.900;4.748;2023-05-13T13:21:03;4.78;;;3.85;;
74963;SDS011;63521;51.900;4.748;2023-05-13T13:23:29;3.90;;;3.50;;
74963;SDS011;63521;51.900;4.748;2023-05-13T13:25:55;4.38;;;3.97;;
74963;SDS011;63521;51.900;4.748;2023-05-13T13:28:23;4.20;;;3.78;;
74963;SDS011;63521;51.900;4.748;2023-05-13T13:30:49;4.30;;;3.90;;
74963;SDS011;63521;51.900;4.748;2023-05-13T13:33:15;4.32;;;3.92;;
74963;SDS011;63521;51.900;4.748;2023-05-13T13:35:44;4.70;;;4.30;;
74963;SDS011;63521;51.900;4.748;2023-05-13T13:38:09;5.15;;;3.80;;
74963;SDS011;63521;51.900;4.748;2023-05-13T13:40:35;4.45;;;3.90;;
74963;SDS011;63521;51.900;4.748;2023-05-13T13:43:01;4.70;;;4.30;;
74963;SDS011;63521;51.900;4.748;2023-05-13T13:45:27;5.15;;;4.07;;
74963;SDS011;63521;51.900;4.748;2023-05-13T13:47:53;4.43;;;3.90;;
74963;SDS011;63521;51.900;4.748;2023-05-13T13:50:22;4.18;;;3.78;;
74963;SDS011;63521;51.900;4.748;2023-05-13T13:52:47;4.93;;;3.83;;
74963;SDS011;63521;51.900;4.748;2023-05-13T13:55:20;4.20;;;3.80;;
74963;SDS011;63521;51.900;4.748;2023-05-13T13:57:46;4.68;;;4.20;;
74963;SDS011;63521;51.900;4.748;2023-05-13T14:00:12;3.97;;;3.58;;
74963;SDS011;63521;51.900;4.748;2023-05-13T14:02:42;4.25;;;3.83;;
74963;SDS011;63521;51.900;4.748;2023-05-13T14:05:10;5.10;;;4.05;;
74963;SDS011;63521;51.900;4.748;2023-05-13T14:07:45;4.55;;;3.83;;
74963;SDS011;63521;51.900;4.748;2023-05-13T14:10:37;4.70;;;4.05;;
74963;SDS011;63521;51.900;4.748;2023-05-13T14:13:03;4.95;;;4.30;;
74963;SDS011;63521;51.900;4.748;2023-05-13T14:15:38;5.65;;;3.95;;
74963;SDS011;63521;51.900;4.748;2023-05-13T14:18:04;9.07;;;6.78;;
74963;SDS011;63521;51.900;4.748;2023-05-13T14:20:35;7.22;;;6.50;;
74963;SDS011;63521;51.900;4.748;2023-05-13T14:29:23;5.60;;;4.60;;
74963;SDS011;63521;51.900;4.748;2023-05-13T14:35:26;4.90;;;4.30;;
74963;SDS011;63521;51.900;4.748;2023-05-13T14:37:54;4.80;;;4.30;;
74963;SDS011;63521;51.900;4.748;2023-05-13T14:43:10;4.90;;;4.40;;
74963;SDS011;63521;51.900;4.748;2023-05-13T14:46:39;4.88;;;4.45;;
74963;SDS011;63521;51.900;4.748;2023-05-13T14:49:08;5.47;;;4.57;;
74963;SDS011;63521;51.900;4.748;2023-05-13T15:21:10;4.82;;;4.32;;
74963;SDS011;63521;51.900;4.748;2023-05-13T15:50:05;4.65;;;4.00;;
74963;SDS011;63521;51.900;4.748;2023-05-13T15:52:38;5.65;;;4.28;;
74963;SDS011;63521;51.900;4.748;2023-05-13T15:55:04;6.65;;;4.72;;
74963;SDS011;63521;51.900;4.748;2023-05-13T15:57:53;5.35;;;4.28;;
74963;SDS011;63521;51.900;4.748;2023-05-13T16:00:21;4.65;;;4.00;;
74963;SDS011;63521;51.900;4.748;2023-05-13T16:05:54;4.68;;;4.15;;
74963;SDS011;63521;51.900;4.748;2023-05-13T16:09:03;5.35;;;4.35;;
74963;SDS011;63521;51.900;4.748;2023-05-13T16:11:49;4.85;;;3.92;;
74963;SDS011;63521;51.900;4.748;2023-05-13T16:14:36;4.60;;;4.18;;
74963;SDS011;63521;51.900;4.748;2023-05-13T16:17:02;4.78;;;4.35;;
74963;SDS011;63521;51.900;4.748;2023-05-13T16:19:30;4.80;;;4.05;;
74963;SDS011;63521;51.900;4.748;2023-05-13T16:21:57;4.57;;;3.97;;
74963;SDS011;63521;51.900;4.748;2023-05-13T16:24:23;4.47;;;4.07;;
74963;SDS011;63521;51.900;4.748;2023-05-13T16:26:49;4.60;;;4.20;;
74963;SDS011;63521;51.900;4.748;2023-05-13T16:29:15;4.80;;;4.30;;
74963;SDS011;63521;51.900;4.748;2023-05-13T16:31:47;4.75;;;4.25;;
74963;SDS011;63521;51.900;4.748;2023-05-13T16:34:14;4.70;;;4.03;;
74963;SDS011;63521;51.900;4.748;2023-05-13T16:36:49;4.18;;;3.78;;
74963;SDS011;63521;51.900;4.748;2023-05-13T16:39:19;4.50;;;4.10;;
74963;SDS011;63521;51.900;4.748;2023-05-13T16:41:46;4.85;;;4.38;;
74963;SDS011;63521;51.900;4.748;2023-05-13T16:44:17;4.70;;;4.20;;
74963;SDS011;63521;51.900;4.748;2023-05-13T16:46:44;4.65;;;4.18;;
74963;SDS011;63521;51.900;4.748;2023-05-13T16:49:16;5.28;;;4.40;;
74963;SDS011;63521;51.900;4.748;2023-05-13T16:51:42;5.18;;;3.80;;
74963;SDS011;63521;51.900;4.748;2023-05-13T16:54:28;10.07;;;5.03;;
74963;SDS011;63521;51.900;4.748;2023-05-13T16:57:05;5.63;;;4.10;;
74963;SDS011;63521;51.900;4.748;2023-05-13T17:01:01;5.70;;;4.35;;